East Union, Indiana
Current Conditions -  °F | °C
As of 11:35 AM on Friday 31 Oct 2014 (Local Time) from KTYQ Reporting Station
Light Rain Light Rain  
Wind Chill: 31°   Ceiling: 1800
Heat Index: 39°   Visibility: 10mi
Dew Point: 35°   Wind: 15mph
Humidity: 84%   Direction: 330°NNW
Pressure: 30.02"   Gusts: NA
Location:  40.1832°N, 85.9359°W
Report Text: KTYQ 311535Z AUTO 33013KT 10SM -RA SCT013 BKN018 OVC033 04/02 A3002 RMK AO2 P0001 T00400015
Loading
Personal Weather Stations






























Interactive Weather Map
Tropical Storm Tracking
New forecast layout! Learn more

10-Day Weather Forecast

Advertisements
Track Severe Weather on mobile